sensor_id;sensor_type;location;lat;lon;timestamp;pressure;altitude;pressure_sealevel;temperature;humidity
45285;BME280;31026;43.780;25.948;2023-05-14T00:01:21;101547.63;;;19.24;63.08
45285;BME280;31026;43.780;25.948;2023-05-14T00:03:49;101545.06;;;19.22;62.98
45285;BME280;31026;43.780;25.948;2023-05-14T00:06:18;101544.44;;;19.19;62.94
45285;BME280;31026;43.780;25.948;2023-05-14T00:08:49;101528.56;;;19.16;63.08
45285;BME280;31026;43.780;25.948;2023-05-14T00:11:17;101532.97;;;19.17;63.00
45285;BME280;31026;43.780;25.948;2023-05-14T00:13:45;101522.88;;;19.20;63.06
45285;BME280;31026;43.780;25.948;2023-05-14T00:16:14;101529.44;;;19.16;62.95
45285;BME280;31026;43.780;25.948;2023-05-14T00:18:42;101527.09;;;19.12;63.27
45285;BME280;31026;43.780;25.948;2023-05-14T00:21:10;101542.69;;;19.18;63.21
45285;BME280;31026;43.780;25.948;2023-05-14T00:23:39;101519.78;;;19.14;63.09
45285;BME280;31026;43.780;25.948;2023-05-14T00:26:10;101528.81;;;19.13;63.26
45285;BME280;31026;43.780;25.948;2023-05-14T00:28:38;101520.03;;;19.11;63.06
45285;BME280;31026;43.780;25.948;2023-05-14T00:31:06;101521.97;;;19.08;63.07
45285;BME280;31026;43.780;25.948;2023-05-14T00:33:34;101512.00;;;19.11;62.95
45285;BME280;31026;43.780;25.948;2023-05-14T00:36:03;101532.44;;;19.12;63.17
45285;BME280;31026;43.780;25.948;2023-05-14T00:38:31;101512.94;;;19.10;63.13
45285;BME280;31026;43.780;25.948;2023-05-14T00:40:59;101524.56;;;19.10;63.10
45285;BME280;31026;43.780;25.948;2023-05-14T00:43:30;101517.63;;;19.19;62.99
45285;BME280;31026;43.780;25.948;2023-05-14T00:45:58;101514.69;;;19.11;63.12
45285;BME280;31026;43.780;25.948;2023-05-14T00:48:27;101537.06;;;19.10;63.26
45285;BME280;31026;43.780;25.948;2023-05-14T00:50:56;101506.13;;;19.05;63.21
45285;BME280;31026;43.780;25.948;2023-05-14T00:53:24;101513.94;;;19.08;63.06
45285;BME280;31026;43.780;25.948;2023-05-14T00:55:53;101512.94;;;19.10;62.92
45285;BME280;31026;43.780;25.948;2023-05-14T00:58:21;101495.16;;;19.08;63.20
45285;BME280;31026;43.780;25.948;2023-05-14T01:00:53;101507.09;;;19.04;63.22
45285;BME280;31026;43.780;25.948;2023-05-14T01:03:21;101501.84;;;19.03;63.25
45285;BME280;31026;43.780;25.948;2023-05-14T01:05:52;101505.50;;;19.02;63.22
45285;BME280;31026;43.780;25.948;2023-05-14T01:08:28;101518.78;;;18.92;63.40
45285;BME280;31026;43.780;25.948;2023-05-14T01:11:03;101512.69;;;19.01;63.37
45285;BME280;31026;43.780;25.948;2023-05-14T01:13:36;101507.22;;;19.03;63.28
45285;BME280;31026;43.780;25.948;2023-05-14T01:16:10;101510.00;;;19.01;63.28
45285;BME280;31026;43.780;25.948;2023-05-14T01:18:40;101497.81;;;18.97;63.43
45285;BME280;31026;43.780;25.948;2023-05-14T01:21:27;101495.38;;;18.94;63.41
45285;BME280;31026;43.780;25.948;2023-05-14T01:24:00;101501.97;;;19.01;63.52
45285;BME280;31026;43.780;25.948;2023-05-14T01:26:29;101514.00;;;18.96;63.12
45285;BME280;31026;43.780;25.948;2023-05-14T01:28:59;101493.31;;;18.98;63.38
45285;BME280;31026;43.780;25.948;2023-05-14T01:31:29;101495.03;;;18.99;63.32
45285;BME280;31026;43.780;25.948;2023-05-14T01:33:58;101496.34;;;18.93;63.41
45285;BME280;31026;43.780;25.948;2023-05-14T01:36:30;101487.56;;;18.91;63.38
45285;BME280;31026;43.780;25.948;2023-05-14T01:38:59;101494.88;;;18.89;63.43
45285;BME280;31026;43.780;25.948;2023-05-14T01:41:29;101481.47;;;18.89;63.53
45285;BME280;31026;43.780;25.948;2023-05-14T01:43:58;101483.19;;;18.90;63.50
45285;BME280;31026;43.780;25.948;2023-05-14T01:46:28;101506.06;;;18.83;63.80
45285;BME280;31026;43.780;25.948;2023-05-14T01:48:57;101505.59;;;18.89;63.62
45285;BME280;31026;43.780;25.948;2023-05-14T01:51:26;101499.59;;;18.85;63.50
45285;BME280;31026;43.780;25.948;2023-05-14T01:53:57;101496.59;;;18.90;63.63
45285;BME280;31026;43.780;25.948;2023-05-14T01:56:25;101498.34;;;18.78;63.59
45285;BME280;31026;43.780;25.948;2023-05-14T01:58:53;101494.94;;;18.76;63.76
45285;BME280;31026;43.780;25.948;2023-05-14T02:01:22;101505.75;;;18.75;63.84
45285;BME280;31026;43.780;25.948;2023-05-14T02:03:50;101505.31;;;18.81;63.67
45285;BME280;31026;43.780;25.948;2023-05-14T02:06:19;101513.00;;;18.85;63.59
45285;BME280;31026;43.780;25.948;2023-05-14T02:08:47;101502.66;;;18.81;63.81
45285;BME280;31026;43.780;25.948;2023-05-14T02:11:18;101500.00;;;18.92;63.47
45285;BME280;31026;43.780;25.948;2023-05-14T02:13:46;101504.63;;;18.90;63.50
45285;BME280;31026;43.780;25.948;2023-05-14T02:16:14;101500.91;;;18.80;64.93
45285;BME280;31026;43.780;25.948;2023-05-14T02:18:43;101489.88;;;18.84;64.97
45285;BME280;31026;43.780;25.948;2023-05-14T02:21:11;101503.91;;;18.88;65.32
45285;BME280;31026;43.780;25.948;2023-05-14T02:23:40;101491.66;;;19.19;64.52
45285;BME280;31026;43.780;25.948;2023-05-14T02:26:08;101487.34;;;19.86;62.82
45285;BME280;31026;43.780;25.948;2023-05-14T02:28:39;101475.50;;;20.32;61.49
45285;BME280;31026;43.780;25.948;2023-05-14T02:31:07;101480.25;;;20.40;61.15
45285;BME280;31026;43.780;25.948;2023-05-14T02:33:35;101480.88;;;20.32;61.46
45285;BME280;31026;43.780;25.948;2023-05-14T02:36:04;101482.66;;;20.43;61.16
45285;BME280;31026;43.780;25.948;2023-05-14T02:38:32;101485.56;;;20.51;61.07
45285;BME280;31026;43.780;25.948;2023-05-14T02:41:01;101478.19;;;20.43;61.07
45285;BME280;31026;43.780;25.948;2023-05-14T02:43:29;101490.50;;;20.46;61.07
45285;BME280;31026;43.780;25.948;2023-05-14T02:46:00;101476.44;;;20.42;61.27
45285;BME280;31026;43.780;25.948;2023-05-14T02:48:28;101494.38;;;20.53;61.19
45285;BME280;31026;43.780;25.948;2023-05-14T02:50:56;101495.59;;;20.60;60.85
45285;BME280;31026;43.780;25.948;2023-05-14T02:53:25;101523.28;;;20.72;60.62
45285;BME280;31026;43.780;25.948;2023-05-14T02:55:53;101492.34;;;20.78;60.51
45285;BME280;31026;43.780;25.948;2023-05-14T02:58:21;101497.31;;;20.82;60.28
45285;BME280;31026;43.780;25.948;2023-05-14T03:00:49;101492.75;;;20.94;60.16
45285;BME280;31026;43.780;25.948;2023-05-14T03:03:20;101484.16;;;20.79;60.16
45285;BME280;31026;43.780;25.948;2023-05-14T03:05:49;101498.50;;;20.69;60.86
45285;BME280;31026;43.780;25.948;2023-05-14T03:08:17;101507.19;;;20.61;60.99
45285;BME280;31026;43.780;25.948;2023-05-14T03:10:45;101506.22;;;20.62;60.93
45285;BME280;31026;43.780;25.948;2023-05-14T03:13:13;101500.97;;;20.60;61.12
45285;BME280;31026;43.780;25.948;2023-05-14T03:15:44;101501.81;;;20.61;60.96
45285;BME280;31026;43.780;25.948;2023-05-14T03:18:12;101507.75;;;20.76;60.59
45285;BME280;31026;43.780;25.948;2023-05-14T03:20:43;101504.06;;;20.77;60.51
45285;BME280;31026;43.780;25.948;2023-05-14T03:23:12;101511.16;;;20.78;60.72
45285;BME280;31026;43.780;25.948;2023-05-14T03:25:40;101485.19;;;20.88;60.50
45285;BME280;31026;43.780;25.948;2023-05-14T03:28:08;101492.16;;;20.91;60.28
45285;BME280;31026;43.780;25.948;2023-05-14T03:30:37;101493.03;;;20.91;60.29
45285;BME280;31026;43.780;25.948;2023-05-14T03:33:05;101488.81;;;20.98;60.15
45285;BME280;31026;43.780;25.948;2023-05-14T03:35:33;101498.72;;;20.98;60.28
45285;BME280;31026;43.780;25.948;2023-05-14T03:38:04;101497.81;;;20.88;60.63
45285;BME280;31026;43.780;25.948;2023-05-14T03:40:32;101492.53;;;20.86;60.38
45285;BME280;31026;43.780;25.948;2023-05-14T03:43:01;101493.78;;;20.82;60.71
45285;BME280;31026;43.780;25.948;2023-05-14T03:45:29;101498.56;;;20.78;60.70
45285;BME280;31026;43.780;25.948;2023-05-14T03:47:58;101495.63;;;20.81;60.53
45285;BME280;31026;43.780;25.948;2023-05-14T03:50:26;101496.88;;;20.77;60.61
45285;BME280;31026;43.780;25.948;2023-05-14T03:52:54;101501.13;;;20.80;60.78
45285;BME280;31026;43.780;25.948;2023-05-14T03:55:25;101496.47;;;20.82;60.67
45285;BME280;31026;43.780;25.948;2023-05-14T03:57:53;101510.63;;;20.84;60.56
45285;BME280;31026;43.780;25.948;2023-05-14T04:00:22;101504.22;;;20.75;60.75
45285;BME280;31026;43.780;25.948;2023-05-14T04:02:50;101495.59;;;20.49;61.36
45285;BME280;31026;43.780;25.948;2023-05-14T04:05:18;101521.56;;;20.27;61.77
45285;BME280;31026;43.780;25.948;2023-05-14T04:07:47;101526.44;;;20.34;61.64
45285;BME280;31026;43.780;25.948;2023-05-14T04:10:16;101521.78;;;20.36;61.54
45285;BME280;31026;43.780;25.948;2023-05-14T04:12:47;101519.34;;;20.33;61.59
45285;BME280;31026;43.780;25.948;2023-05-14T04:15:15;101523.53;;;20.25;61.80
45285;BME280;31026;43.780;25.948;2023-05-14T04:17:44;101518.16;;;20.25;61.70
45285;BME280;31026;43.780;25.948;2023-05-14T04:20:12;101514.63;;;20.14;62.08
45285;BME280;31026;43.780;25.948;2023-05-14T04:22:41;101514.13;;;20.20;61.96
45285;BME280;31026;43.780;25.948;2023-05-14T04:25:09;101522.78;;;20.23;61.90
45285;BME280;31026;43.780;25.948;2023-05-14T04:27:37;101511.31;;;20.21;61.95
45285;BME280;31026;43.780;25.948;2023-05-14T04:30:09;101510.81;;;20.27;61.44
45285;BME280;31026;43.780;25.948;2023-05-14T04:32:37;101513.00;;;20.22;61.58
45285;BME280;31026;43.780;25.948;2023-05-14T04:35:06;101506.81;;;20.22;61.73
45285;BME280;31026;43.780;25.948;2023-05-14T04:37:34;101508.16;;;20.16;61.63
45285;BME280;31026;43.780;25.948;2023-05-14T04:40:03;101508.66;;;20.10;61.97
45285;BME280;31026;43.780;25.948;2023-05-14T04:42:32;101504.25;;;20.09;61.91
45285;BME280;31026;43.780;25.948;2023-05-14T04:45:00;101499.88;;;20.08;61.87
45285;BME280;31026;43.780;25.948;2023-05-14T04:47:31;101507.19;;;20.06;62.05
45285;BME280;31026;43.780;25.948;2023-05-14T04:50:00;101504.88;;;20.01;62.08
45285;BME280;31026;43.780;25.948;2023-05-14T04:52:28;101490.34;;;20.04;62.18
45285;BME280;31026;43.780;25.948;2023-05-14T04:54:56;101504.88;;;20.01;62.10
45285;BME280;31026;43.780;25.948;2023-05-14T04:57:25;101502.06;;;20.03;62.00
45285;BME280;31026;43.780;25.948;2023-05-14T04:59:53;101491.59;;;20.00;61.94
45285;BME280;31026;43.780;25.948;2023-05-14T05:02:22;101508.31;;;19.81;62.58
45285;BME280;31026;43.780;25.948;2023-05-14T05:04:52;101521.59;;;19.71;62.91
45285;BME280;31026;43.780;25.948;2023-05-14T05:07:21;101525.34;;;19.46;63.64
45285;BME280;31026;43.780;25.948;2023-05-14T05:09:49;101512.75;;;19.35;64.22
45285;BME280;31026;43.780;25.948;2023-05-14T05:12:17;101517.28;;;19.35;64.20
45285;BME280;31026;43.780;25.948;2023-05-14T05:14:46;101523.75;;;19.32;64.25
45285;BME280;31026;43.780;25.948;2023-05-14T05:17:14;101523.75;;;19.32;64.25
45285;BME280;31026;43.780;25.948;2023-05-14T05:19:42;101515.94;;;19.40;63.81
45285;BME280;31026;43.780;25.948;2023-05-14T05:22:13;101525.34;;;19.57;63.39
45285;BME280;31026;43.780;25.948;2023-05-14T05:24:41;101513.75;;;19.57;63.52
45285;BME280;31026;43.780;25.948;2023-05-14T05:27:10;101507.19;;;19.61;63.39
45285;BME280;31026;43.780;25.948;2023-05-14T05:29:38;101518.41;;;19.55;63.61
45285;BME280;31026;43.780;25.948;2023-05-14T05:32:06;101506.69;;;19.44;63.76
45285;BME280;31026;43.780;25.948;2023-05-14T05:34:35;101511.09;;;19.57;63.60
45285;BME280;31026;43.780;25.948;2023-05-14T05:37:03;101505.59;;;19.58;63.51
45285;BME280;31026;43.780;25.948;2023-05-14T05:39:36;101503.56;;;19.73;62.99
45285;BME280;31026;43.780;25.948;2023-05-14T05:42:04;101509.25;;;19.68;62.96
45285;BME280;31026;43.780;25.948;2023-05-14T05:44:33;101507.19;;;19.61;63.89
45285;BME280;31026;43.780;25.948;2023-05-14T05:47:01;101510.38;;;19.66;65.64
45285;BME280;31026;43.780;25.948;2023-05-14T05:49:29;101521.81;;;19.57;65.07
45285;BME280;31026;43.780;25.948;2023-05-14T05:51:57;101559.16;;;19.60;64.56
45285;BME280;31026;43.780;25.948;2023-05-14T05:54:26;101528.63;;;19.50;65.26
45285;BME280;31026;43.780;25.948;2023-05-14T05:56:58;101521.31;;;19.63;65.97
45285;BME280;31026;43.780;25.948;2023-05-14T05:59:27;101524.50;;;19.57;66.07
45285;BME280;31026;43.780;25.948;2023-05-14T06:01:55;101523.16;;;19.62;65.78
45285;BME280;31026;43.780;25.948;2023-05-14T06:04:23;101531.09;;;19.53;65.77
45285;BME280;31026;43.780;25.948;2023-05-14T06:06:52;101539.00;;;19.54;66.10
45285;BME280;31026;43.780;25.948;2023-05-14T06:09:20;101551.44;;;19.55;66.42
45285;BME280;31026;43.780;25.948;2023-05-14T06:11:48;101540.47;;;19.58;66.76
45285;BME280;31026;43.780;25.948;2023-05-14T06:14:19;101538.66;;;19.70;66.17
45285;BME280;31026;43.780;25.948;2023-05-14T06:16:48;101540.38;;;19.71;66.26
45285;BME280;31026;43.780;25.948;2023-05-14T06:19:16;101539.44;;;19.72;66.47
45285;BME280;31026;43.780;25.948;2023-05-14T06:21:44;101538.22;;;19.76;65.97
45285;BME280;31026;43.780;25.948;2023-05-14T06:24:13;101545.50;;;19.85;65.53
45285;BME280;31026;43.780;25.948;2023-05-14T06:26:41;101540.38;;;19.71;66.12
45285;BME280;31026;43.780;25.948;2023-05-14T06:29:09;101543.31;;;19.79;66.23
45285;BME280;31026;43.780;25.948;2023-05-14T06:31:40;101543.53;;;19.65;66.81
45285;BME280;31026;43.780;25.948;2023-05-14T06:34:08;101543.06;;;19.60;66.72
45285;BME280;31026;43.780;25.948;2023-05-14T06:36:37;101542.56;;;19.66;66.79
45285;BME280;31026;43.780;25.948;2023-05-14T06:39:05;101541.69;;;19.65;66.67
45285;BME280;31026;43.780;25.948;2023-05-14T06:41:34;101529.66;;;19.71;65.74
45285;BME280;31026;43.780;25.948;2023-05-14T06:44:02;101529.44;;;19.74;65.89
45285;BME280;31026;43.780;25.948;2023-05-14T06:46:30;101546.47;;;19.73;66.45
45285;BME280;31026;43.780;25.948;2023-05-14T06:49:01;101533.53;;;19.67;66.08
45285;BME280;31026;43.780;25.948;2023-05-14T06:51:30;101539.31;;;19.74;66.02
45285;BME280;31026;43.780;25.948;2023-05-14T06:53:58;101532.34;;;19.71;65.85
45285;BME280;31026;43.780;25.948;2023-05-14T06:56:26;101537.38;;;19.76;65.86
45285;BME280;31026;43.780;25.948;2023-05-14T06:58:55;101517.34;;;19.80;65.87
45285;BME280;31026;43.780;25.948;2023-05-14T07:01:23;101537.22;;;19.89;65.91
45285;BME280;31026;43.780;25.948;2023-05-14T07:03:51;101529.28;;;19.87;65.85
45285;BME280;31026;43.780;25.948;2023-05-14T07:06:22;101529.06;;;19.90;65.89
45285;BME280;31026;43.780;25.948;2023-05-14T07:08:50;101524.78;;;19.76;66.08
45285;BME280;31026;43.780;25.948;2023-05-14T07:11:19;101535.63;;;19.75;66.24
45285;BME280;31026;43.780;25.948;2023-05-14T07:13:47;101538.22;;;19.76;66.31
45285;BME280;31026;43.780;25.948;2023-05-14T07:16:16;101529.66;;;19.71;66.13
45285;BME280;31026;43.780;25.948;2023-05-14T07:18:44;101538.66;;;19.70;66.19
45285;BME280;31026;43.780;25.948;2023-05-14T07:21:13;101541.84;;;19.75;65.81
45285;BME280;31026;43.780;25.948;2023-05-14T07:23:44;101532.34;;;19.82;65.63
45285;BME280;31026;43.780;25.948;2023-05-14T07:26:13;101540.13;;;19.85;65.53
45285;BME280;31026;43.780;25.948;2023-05-14T07:28:41;101543.81;;;19.84;65.42
45285;BME280;31026;43.780;25.948;2023-05-14T07:31:09;101548.19;;;19.85;65.67
45285;BME280;31026;43.780;25.948;2023-05-14T07:33:38;101542.59;;;19.77;65.94
45285;BME280;31026;43.780;25.948;2023-05-14T07:36:06;101544.03;;;19.70;65.76
45285;BME280;31026;43.780;25.948;2023-05-14T07:38:34;101540.38;;;19.71;66.34
45285;BME280;31026;43.780;25.948;2023-05-14T07:41:05;101526.75;;;19.74;66.09
45285;BME280;31026;43.780;25.948;2023-05-14T07:43:35;101518.69;;;19.74;65.31
45285;BME280;31026;43.780;25.948;2023-05-14T07:46:04;101514.84;;;19.65;65.82
45285;BME280;31026;43.780;25.948;2023-05-14T07:48:33;101516.97;;;19.73;65.73
45285;BME280;31026;43.780;25.948;2023-05-14T07:51:01;101515.47;;;19.69;65.77
45285;BME280;31026;43.780;25.948;2023-05-14T07:53:29;101514.28;;;19.73;65.55
45285;BME280;31026;43.780;25.948;2023-05-14T07:55:57;101533.59;;;19.90;64.89
45285;BME280;31026;43.780;25.948;2023-05-14T07:58:29;101531.34;;;19.95;64.60
45285;BME280;31026;43.780;25.948;2023-05-14T08:00:57;101523.81;;;19.89;64.89
45285;BME280;31026;43.780;25.948;2023-05-14T08:03:28;101529.91;;;19.91;64.27
45285;BME280;31026;43.780;25.948;2023-05-14T08:05:56;101511.59;;;19.73;64.04
45285;BME280;31026;43.780;25.948;2023-05-14T08:08:24;101521.38;;;19.74;64.81
45285;BME280;31026;43.780;25.948;2023-05-14T08:10:52;101525.03;;;19.73;64.90
45285;BME280;31026;43.780;25.948;2023-05-14T08:13:21;101522.09;;;19.76;64.87
45285;BME280;31026;43.780;25.948;2023-05-14T08:15:52;101525.75;;;19.75;64.96
45285;BME280;31026;43.780;25.948;2023-05-14T08:18:20;101516.34;;;19.81;64.42
45285;BME280;31026;43.780;25.948;2023-05-14T08:20:49;101531.63;;;19.92;63.87
45285;BME280;31026;43.780;25.948;2023-05-14T08:23:17;101529.28;;;19.87;64.17
45285;BME280;31026;43.780;25.948;2023-05-14T08:25:46;101524.06;;;19.74;64.54
45285;BME280;31026;43.780;25.948;2023-05-14T08:28:14;101534.03;;;19.83;64.43
45285;BME280;31026;43.780;25.948;2023-05-14T08:30:46;101537.47;;;19.85;64.43
45285;BME280;31026;43.780;25.948;2023-05-14T08:33:17;101520.16;;;19.78;64.53
45285;BME280;31026;43.780;25.948;2023-05-14T08:35:45;101539.91;;;19.77;65.01
45285;BME280;31026;43.780;25.948;2023-05-14T08:38:13;101539.31;;;19.74;65.40
45285;BME280;31026;43.780;25.948;2023-05-14T08:40:45;101536.81;;;19.71;65.47
45285;BME280;31026;43.780;25.948;2023-05-14T08:43:14;101538.44;;;19.73;65.29
45285;BME280;31026;43.780;25.948;2023-05-14T08:45:46;101511.31;;;19.65;65.65
45285;BME280;31026;43.780;25.948;2023-05-14T08:48:19;101542.59;;;19.77;65.55
45285;BME280;31026;43.780;25.948;2023-05-14T08:50:49;101539.06;;;19.77;65.82
45285;BME280;31026;43.780;25.948;2023-05-14T08:53:18;101542.34;;;19.80;65.90
45285;BME280;31026;43.780;25.948;2023-05-14T08:55:46;101533.47;;;19.80;65.92
45285;BME280;31026;43.780;25.948;2023-05-14T08:58:17;101544.66;;;19.85;66.06
45285;BME280;31026;43.780;25.948;2023-05-14T09:00:46;101525.25;;;19.81;66.03
45285;BME280;31026;43.780;25.948;2023-05-14T09:03:15;101517.94;;;19.83;66.13
45285;BME280;31026;43.780;25.948;2023-05-14T09:05:46;101518.44;;;19.77;66.20
45285;BME280;31026;43.780;25.948;2023-05-14T09:08:16;101501.09;;;19.81;65.53
45285;BME280;31026;43.780;25.948;2023-05-14T09:10:44;101512.56;;;19.83;65.40
45285;BME280;31026;43.780;25.948;2023-05-14T09:13:12;101519.88;;;19.81;65.51
45285;BME280;31026;43.780;25.948;2023-05-14T09:15:41;101509.16;;;19.70;66.04
45285;BME280;31026;43.780;25.948;2023-05-14T09:18:10;101524.50;;;19.68;65.92
45285;BME280;31026;43.780;25.948;2023-05-14T09:20:38;101511.22;;;19.66;65.71
45285;BME280;31026;43.780;25.948;2023-05-14T09:23:09;101501.44;;;19.65;65.81
45285;BME280;31026;43.780;25.948;2023-05-14T09:25:37;101509.25;;;19.68;65.86
45285;BME280;31026;43.780;25.948;2023-05-14T09:28:07;101511.22;;;19.66;65.53
45285;BME280;31026;43.780;25.948;2023-05-14T09:30:36;101510.38;;;19.66;65.03
45285;BME280;31026;43.780;25.948;2023-05-14T09:33:04;101517.53;;;19.65;65.45
45285;BME280;31026;43.780;25.948;2023-05-14T09:35:36;101520.59;;;19.61;65.56
45285;BME280;31026;43.780;25.948;2023-05-14T09:38:05;101522.44;;;19.60;65.14
45285;BME280;31026;43.780;25.948;2023-05-14T09:40:37;101521.09;;;19.55;65.31
45285;BME280;31026;43.780;25.948;2023-05-14T09:43:06;101526.69;;;19.52;64.80
45285;BME280;31026;43.780;25.948;2023-05-14T09:45:35;101516.94;;;19.51;63.85
45285;BME280;31026;43.780;25.948;2023-05-14T09:48:04;101524.00;;;19.52;63.55
45285;BME280;31026;43.780;25.948;2023-05-14T09:50:32;101526.94;;;19.48;63.47
45285;BME280;31026;43.780;25.948;2023-05-14T09:53:08;101527.66;;;19.51;63.39
45285;BME280;31026;43.780;25.948;2023-05-14T09:55:39;101524.75;;;19.54;62.74
45285;BME280;31026;43.780;25.948;2023-05-14T09:58:07;101524.00;;;19.52;63.12
45285;BME280;31026;43.780;25.948;2023-05-14T10:00:37;101517.44;;;19.56;63.03
45285;BME280;31026;43.780;25.948;2023-05-14T10:03:06;101514.50;;;19.59;63.10
45285;BME280;31026;43.780;25.948;2023-05-14T10:05:35;101525.72;;;19.53;63.28
45285;BME280;31026;43.780;25.948;2023-05-14T10:08:04;101521.81;;;19.57;62.83
45285;BME280;31026;43.780;25.948;2023-05-14T10:10:35;101518.16;;;19.46;63.33
45285;BME280;31026;43.780;25.948;2023-05-14T10:13:08;101506.69;;;19.67;62.02
45285;BME280;31026;43.780;25.948;2023-05-14T10:15:42;101526.44;;;19.55;62.70
45285;BME280;31026;43.780;25.948;2023-05-14T10:18:15;101528.63;;;19.50;62.98
45285;BME280;31026;43.780;25.948;2023-05-14T10:20:45;101519.75;;;19.60;62.89
45285;BME280;31026;43.780;25.948;2023-05-14T10:23:15;101517.78;;;19.51;63.15
45285;BME280;31026;43.780;25.948;2023-05-14T10:25:44;101512.53;;;19.50;63.05
45285;BME280;31026;43.780;25.948;2023-05-14T10:28:15;101510.94;;;19.47;62.90
45285;BME280;31026;43.780;25.948;2023-05-14T10:30:44;101505.69;;;19.45;62.86
45285;BME280;31026;43.780;25.948;2023-05-14T10:33:14;101483.03;;;19.50;63.02
45285;BME280;31026;43.780;25.948;2023-05-14T10:35:55;101479.59;;;19.47;62.76
45285;BME280;31026;43.780;25.948;2023-05-14T10:38:27;101493.03;;;19.47;63.27
45285;BME280;31026;43.780;25.948;2023-05-14T10:40:59;101479.72;;;19.57;62.74
45285;BME280;31026;43.780;25.948;2023-05-14T10:43:36;101461.59;;;19.72;61.06
45285;BME280;31026;43.780;25.948;2023-05-14T10:46:05;101467.94;;;19.82;61.28
45285;BME280;31026;43.780;25.948;2023-05-14T10:48:34;101469.75;;;19.48;58.61
45285;BME280;31026;43.780;25.948;2023-05-14T10:51:03;101449.75;;;19.52;59.93
45285;BME280;31026;43.780;25.948;2023-05-14T10:53:34;101454.03;;;19.77;59.18
45285;BME280;31026;43.780;25.948;2023-05-14T10:56:03;101441.94;;;19.83;59.25
45285;BME280;31026;43.780;25.948;2023-05-14T10:58:36;101448.88;;;19.63;59.76
45285;BME280;31026;43.780;25.948;2023-05-14T11:01:05;101434.63;;;19.62;60.03
45285;BME280;31026;43.780;25.948;2023-05-14T11:03:40;101438.41;;;19.60;60.15
45285;BME280;31026;43.780;25.948;2023-05-14T11:06:09;101427.56;;;19.39;60.46
45285;BME280;31026;43.780;25.948;2023-05-14T11:08:38;101400.50;;;19.42;60.34
45285;BME280;31026;43.780;25.948;2023-05-14T11:11:07;101394.88;;;19.45;60.89
45285;BME280;31026;43.780;25.948;2023-05-14T11:13:38;101386.34;;;19.62;60.85
45285;BME280;31026;43.780;25.948;2023-05-14T11:16:06;101386.22;;;19.53;60.65
45285;BME280;31026;43.780;25.948;2023-05-14T11:18:35;101397.31;;;19.37;61.45
45285;BME280;31026;43.780;25.948;2023-05-14T11:21:06;101397.31;;;19.25;61.75
45285;BME280;31026;43.780;25.948;2023-05-14T11:23:34;101408.03;;;19.25;62.12
45285;BME280;31026;43.780;25.948;2023-05-14T11:26:02;101410.13;;;19.22;62.17
45285;BME280;31026;43.780;25.948;2023-05-14T11:28:31;101425.00;;;19.26;61.45
45285;BME280;31026;43.780;25.948;2023-05-14T11:31:02;101412.81;;;19.33;61.59
45285;BME280;31026;43.780;25.948;2023-05-14T11:33:30;101396.47;;;19.36;60.92
45285;BME280;31026;43.780;25.948;2023-05-14T11:35:59;101394.16;;;19.43;57.09
45285;BME280;31026;43.780;25.948;2023-05-14T11:38:27;101407.44;;;19.56;58.73
45285;BME280;31026;43.780;25.948;2023-05-14T11:40:56;101430.88;;;19.54;58.98
45285;BME280;31026;43.780;25.948;2023-05-14T11:43:24;101428.91;;;19.44;59.61
45285;BME280;31026;43.780;25.948;2023-05-14T11:45:53;101386.81;;;19.56;58.92
45285;BME280;31026;43.780;25.948;2023-05-14T11:48:24;101399.41;;;19.56;55.95
45285;BME280;31026;43.780;25.948;2023-05-14T11:50:53;101388.50;;;19.68;56.55
45285;BME280;31026;43.780;25.948;2023-05-14T11:53:24;101380.84;;;19.64;58.40
45285;BME280;31026;43.780;25.948;2023-05-14T11:55:52;101376.81;;;19.70;56.02
45285;BME280;31026;43.780;25.948;2023-05-14T11:58:22;101399.00;;;19.83;56.87
45285;BME280;31026;43.780;25.948;2023-05-14T12:00:51;101394.00;;;19.67;58.12
45285;BME280;31026;43.780;25.948;2023-05-14T12:03:19;101392.81;;;19.60;58.43
45285;BME280;31026;43.780;25.948;2023-05-14T12:05:59;101373.03;;;19.61;58.92
45285;BME280;31026;43.780;25.948;2023-05-14T12:08:28;101360.84;;;19.57;56.40
45285;BME280;31026;43.780;25.948;2023-05-14T12:10:56;101343.19;;;19.54;58.07
45285;BME280;31026;43.780;25.948;2023-05-14T12:13:25;101352.91;;;19.55;56.90
45285;BME280;31026;43.780;25.948;2023-05-14T12:15:54;101360.63;;;19.60;57.97
45285;BME280;31026;43.780;25.948;2023-05-14T12:18:23;101356.19;;;19.70;56.72
45285;BME280;31026;43.780;25.948;2023-05-14T12:20:51;101357.91;;;19.82;57.08
45285;BME280;31026;43.780;25.948;2023-05-14T12:23:26;101352.13;;;19.87;57.85
45285;BME280;31026;43.780;25.948;2023-05-14T12:25:59;101322.50;;;19.89;57.69
45285;BME280;31026;43.780;25.948;2023-05-14T12:28:28;101312.50;;;19.79;58.75
45285;BME280;31026;43.780;25.948;2023-05-14T12:30:56;101298.88;;;19.71;56.63
45285;BME280;31026;43.780;25.948;2023-05-14T12:33:25;101314.75;;;19.74;56.27
45285;BME280;31026;43.780;25.948;2023-05-14T12:35:53;101320.00;;;19.76;57.11
45285;BME280;31026;43.780;25.948;2023-05-14T12:38:28;101308.75;;;19.71;57.77
45285;BME280;31026;43.780;25.948;2023-05-14T12:40:58;101313.03;;;19.73;55.73
45285;BME280;31026;43.780;25.948;2023-05-14T12:43:26;101314.34;;;19.67;57.24
45285;BME280;31026;43.780;25.948;2023-05-14T12:45:56;101299.13;;;19.68;55.98
45285;BME280;31026;43.780;25.948;2023-05-14T12:48:24;101298.63;;;19.74;56.77
45285;BME280;31026;43.780;25.948;2023-05-14T12:50:52;101286.56;;;19.80;57.88